Terminal Aerodrome Forecast
Issued by NWS Jacksonville, FL

Home | Current Version | Previous Version | Text Only | Print | Product List | Glossary On
Versions: 1 2 3 4 5 6 7 8 9 10 11 12 13 14 15 16 17 18 19 20 21 22 23 24 25 26 27
000
FTUS42 KJAX 270532 AAA
TAFGNV
TAF AMD
KGNV 270532Z 2706/2806 25006KT P6SM -SHRA SCT015 OVC040
      TEMPO 2706/2708 4SM -SHRA BR OVC015
     FM270900 21006KT P6SM VCSH SCT012 OVC025
     FM271100 20007KT P6SM OVC012
     FM271400 24012KT P6SM -SHRA OVC020
     FM271600 27014G22KT 5SM -SHRA VCTS BKN030CB PROB30 2717/2720
      VRB20G35KT 2SM TSRA BR BKN020CB
     FM272100 28012KT P6SM VCSH SCT025 BKN050
     FM272300 30010KT P6SM SCT050
     FM280200 32008KT P6SM SKC=

USA.gov is the U.S. government's official web portal to all federal, state and local government web resources and services.